Time;durP1;ratioP1;P1;durP2;ratioP2;P2;SDS_P1;SDS_P2;PMS_P1;PMS_P2;Temp;Humidity;BMP_temperature;BMP_pressure;BME280_temperature;BME280_humidity;BME280_pressure;Samples;Min_cycle;Max_cycle;Signal;HPM_P1;HPM_P2
2023/01/27 00:02:14;;;;;;;;;11.25;7.75;;;;;-147.17;100.00;-15917.19;4983399;28;53703;-45
2023/01/27 00:04:40;;;;;;;;;5.50;5.50;;;;;-147.17;100.00;-15917.19;4995260;28;51212;-45
2023/01/27 00:07:05;;;;;;;;;7.00;6.00;;;;;-147.17;100.00;-15917.19;4992795;28;51074;-45
2023/01/27 00:09:30;;;;;;;;;5.50;4.00;;;;;-147.17;100.00;-15917.19;4995563;28;51097;-45
2023/01/27 00:14:40;;;;;;;;;6.00;5.00;;;;;-147.17;100.00;-15917.19;4991007;28;51141;-46
2023/01/27 00:17:05;;;;;;;;;5.25;5.00;;;;;-147.17;100.00;-15917.19;4999396;28;51089;-45
2023/01/27 00:19:30;;;;;;;;;5.00;4.50;;;;;-147.17;100.00;-15917.19;4993005;28;51255;-45
2023/01/27 00:24:41;;;;;;;;;7.75;6.50;;;;;-147.17;100.00;-15917.19;4985003;28;51052;-44
2023/01/27 00:27:08;;;;;;;;;11.00;11.00;;;;;-147.17;100.00;-15917.19;4992532;28;51161;-46
2023/01/27 00:29:36;;;;;;;;;11.75;8.25;;;;;-147.17;100.00;-15917.19;5001121;28;51011;-45
2023/01/27 00:34:46;;;;;;;;;10.50;7.75;;;;;-147.17;100.00;-15917.19;4991297;28;51029;-44
2023/01/27 00:37:11;;;;;;;;;14.75;11.00;;;;;-147.17;100.00;-15917.19;4992414;28;51279;-44
2023/01/27 00:39:37;;;;;;;;;9.00;7.25;;;;;-147.17;100.00;-15917.19;4994284;28;51084;-45
2023/01/27 00:42:03;;;;;;;;;8.25;8.25;;;;;-147.17;100.00;-15917.19;4993048;28;51955;-45
2023/01/27 00:44:28;;;;;;;;;7.50;6.75;;;;;-147.17;100.00;-15917.19;4986705;28;51690;-46
2023/01/27 00:46:53;;;;;;;;;7.00;7.00;;;;;-147.17;100.00;-15917.19;4992640;28;51660;-45
2023/01/27 00:49:19;;;;;;;;;5.50;5.50;;;;;-147.17;100.00;-15917.19;5005803;28;51240;-46
2023/01/27 00:51:44;;;;;;;;;4.00;4.00;;;;;-147.17;100.00;-15917.19;4998416;28;51039;-44
2023/01/27 00:54:10;;;;;;;;;3.50;3.50;;;;;-147.17;100.00;-15917.19;5012207;28;50919;-44
2023/01/27 00:56:35;;;;;;;;;5.00;3.00;;;;;-147.17;100.00;-15917.19;5010408;28;51243;-43
2023/01/27 00:59:01;;;;;;;;;6.75;5.00;;;;;-147.17;100.00;-15917.19;5013607;28;51021;-44
2023/01/27 01:01:26;;;;;;;;;2.25;2.25;;;;;-147.17;100.00;-15917.19;4996769;28;51781;-46
2023/01/27 01:03:52;;;;;;;;;5.50;5.50;;;;;-147.17;100.00;-15917.19;5012876;28;50919;-45
2023/01/27 01:06:18;;;;;;;;;5.50;4.50;;;;;-147.17;100.00;-15917.19;5011699;28;50978;-46
2023/01/27 01:08:44;;;;;;;;;2.00;2.00;;;;;-147.17;100.00;-15917.19;5006249;28;51256;-46
2023/01/27 01:11:12;;;;;;;;;4.50;3.00;;;;;-147.17;100.00;-15917.19;4994653;28;52164;-45
2023/01/27 01:13:38;;;;;;;;;3.00;2.75;;;;;-147.17;100.00;-15917.19;5012742;28;51117;-46
2023/01/27 01:16:10;;;;;;;;;5.00;3.00;;;;;-147.17;100.00;-15917.19;5003722;28;51000;-46
2023/01/27 01:18:36;;;;;;;;;6.00;3.50;;;;;-147.17;100.00;-15917.19;5013214;28;51012;-45
2023/01/27 01:21:02;;;;;;;;;5.00;3.00;;;;;-147.17;100.00;-15917.19;4997413;28;51134;-46
2023/01/27 01:23:27;;;;;;;;;3.00;3.00;;;;;-147.17;100.00;-15917.19;5011735;28;51121;-45
2023/01/27 01:25:55;;;;;;;;;2.00;2.00;;;;;-147.17;100.00;-15917.19;4995399;28;51010;-47
2023/01/27 01:28:20;;;;;;;;;3.00;3.00;;;;;-147.17;100.00;-15917.19;5007769;28;51029;-46
2023/01/27 01:30:46;;;;;;;;;3.00;2.00;;;;;-147.17;100.00;-15917.19;4983548;28;52618;-46
2023/01/27 01:33:11;;;;;;;;;5.00;3.50;;;;;-147.17;100.00;-15917.19;4985892;28;51117;-45
2023/01/27 01:35:38;;;;;;;;;4.25;3.50;;;;;-147.17;100.00;-15917.19;5003921;28;51117;-45
2023/01/27 01:38:03;;;;;;;;;4.00;4.00;;;;;-147.17;100.00;-15917.19;5002076;28;51079;-47
2023/01/27 01:40:28;;;;;;;;;2.25;2.25;;;;;-147.17;100.00;-15917.19;4998290;28;51338;-46
2023/01/27 01:43:01;;;;;;;;;6.50;3.50;;;;;-147.17;100.00;-15917.19;5002551;28;51134;-46
2023/01/27 01:45:32;;;;;;;;;0.50;0.00;;;;;-147.17;100.00;-15917.19;5012340;28;50924;-46
2023/01/27 01:48:04;;;;;;;;;5.00;3.00;;;;;-147.17;100.00;-15917.19;5011981;28;51213;-46
2023/01/27 01:50:29;;;;;;;;;7.00;5.50;;;;;-147.17;100.00;-15917.19;4991866;28;51990;-45
2023/01/27 01:52:55;;;;;;;;;2.25;2.25;;;;;-147.17;100.00;-15917.19;5005414;28;51319;-46
2023/01/27 01:55:22;;;;;;;;;5.00;3.00;;;;;-147.17;100.00;-15917.19;5006390;28;51172;-45
2023/01/27 01:57:49;;;;;;;;;3.00;3.00;;;;;-147.17;100.00;-15917.19;5006164;28;51299;-45
2023/01/27 02:00:14;;;;;;;;;3.00;2.00;;;;;-147.17;100.00;-15917.19;5004360;28;51941;-46
2023/01/27 02:02:40;;;;;;;;;3.00;3.00;;;;;-147.17;100.00;-15917.19;4996693;28;50868;-45
2023/01/27 02:05:33;;;;;;;;;3.00;2.75;;;;;-147.17;100.00;-15917.19;5006754;28;51360;-46
2023/01/27 02:08:14;;;;;;;;;5.00;2.75;;;;;-147.17;100.00;-15917.19;4985617;28;51314;-44
2023/01/27 02:10:40;;;;;;;;;2.25;2.00;;;;;-147.17;100.00;-15917.19;4991508;28;52148;-45
2023/01/27 02:13:05;;;;;;;;;1.50;1.50;;;;;-147.17;100.00;-15917.19;4999240;28;51129;-46
2023/01/27 02:15:31;;;;;;;;;2.00;2.00;;;;;-147.17;100.00;-15917.19;5006949;28;51023;-44
2023/01/27 02:17:59;;;;;;;;;3.00;2.00;;;;;-147.17;100.00;-15917.19;5010871;28;51288;-45
2023/01/27 02:20:43;;;;;;;;;3.00;3.00;;;;;-147.17;100.00;-15917.19;5006573;28;51140;-45
2023/01/27 02:23:08;;;;;;;;;4.00;2.75;;;;;-147.17;100.00;-15917.19;4965243;28;51192;-43
2023/01/27 02:25:41;;;;;;;;;5.75;3.00;;;;;-147.17;100.00;-15917.19;5010524;28;51093;-45
2023/01/27 02:28:07;;;;;;;;;3.00;3.00;;;;;-147.17;100.00;-15917.19;5011092;28;51124;-45
2023/01/27 02:30:33;;;;;;;;;2.25;1.00;;;;;-147.17;100.00;-15917.19;5004512;28;52542;-45
2023/01/27 02:32:59;;;;;;;;;2.00;2.00;;;;;-147.17;100.00;-15917.19;4995320;28;51236;-45
2023/01/27 02:35:38;;;;;;;;;5.00;4.50;;;;;-147.17;100.00;-15917.19;5005949;28;51048;-45
2023/01/27 02:38:06;;;;;;;;;5.00;3.00;;;;;-147.17;100.00;-15917.19;5010923;28;51010;-44
2023/01/27 02:40:33;;;;;;;;;2.25;2.25;;;;;-147.17;100.00;-15917.19;4998146;28;52188;-45
2023/01/27 02:42:58;;;;;;;;;3.00;2.25;;;;;-147.17;100.00;-15917.19;4999375;28;51035;-45
2023/01/27 02:45:24;;;;;;;;;4.00;3.00;;;;;-147.17;100.00;-15917.19;5013482;28;50967;-44
2023/01/27 02:47:49;;;;;;;;;2.00;2.00;;;;;-147.17;100.00;-15917.19;5003943;28;51122;-46
2023/01/27 02:50:16;;;;;;;;;2.00;2.00;;;;;-147.17;100.00;-15917.19;5001931;28;51070;-45
2023/01/27 02:52:41;;;;;;;;;5.25;3.50;;;;;-147.17;100.00;-15917.19;4999095;28;51104;-44
2023/01/27 02:55:07;;;;;;;;;2.00;2.00;;;;;-147.17;100.00;-15917.19;5014925;28;51378;-45
2023/01/27 02:57:32;;;;;;;;;2.50;2.00;;;;;-147.17;100.00;-15917.19;5012330;28;51080;-46
2023/01/27 02:59:58;;;;;;;;;5.50;4.50;;;;;-147.17;100.00;-15917.19;5012195;28;51701;-46
2023/01/27 03:02:29;;;;;;;;;3.00;3.00;;;;;-147.17;100.00;-15917.19;4997148;28;51138;-45
2023/01/27 03:04:55;;;;;;;;;1.50;1.50;;;;;-147.17;100.00;-15917.19;4985103;28;51126;-45
2023/01/27 03:07:21;;;;;;;;;1.50;1.00;;;;;-147.17;100.00;-15917.19;5012197;28;51042;-45
2023/01/27 03:09:46;;;;;;;;;2.00;2.00;;;;;-147.17;100.00;-15917.19;5014657;28;50996;-45
2023/01/27 03:12:20;;;;;;;;;4.50;4.50;;;;;-147.17;100.00;-15917.19;4996068;28;50956;-45
2023/01/27 03:20:16;;;;;;;;;2.00;2.00;;;;;-147.17;100.00;-15917.19;5012800;28;51344;-44
2023/01/27 03:22:41;;;;;;;;;1.75;1.50;;;;;-147.17;100.00;-15917.19;4994878;28;51112;-43
2023/01/27 03:25:07;;;;;;;;;3.00;3.00;;;;;-147.17;100.00;-15917.19;4986540;28;51116;-44
2023/01/27 03:27:33;;;;;;;;;2.25;1.25;;;;;-147.17;100.00;-15917.19;4996421;28;51377;-44
2023/01/27 03:29:58;;;;;;;;;3.75;2.00;;;;;-147.17;100.00;-15917.19;4992455;28;52189;-46
2023/01/27 03:32:27;;;;;;;;;3.00;2.50;;;;;-147.17;100.00;-15917.19;5005202;28;51187;-45
2023/01/27 03:34:52;;;;;;;;;1.75;1.75;;;;;-147.17;100.00;-15917.19;4981528;28;51173;-45
2023/01/27 03:48:17;;;;;;;;;3.25;1.50;;;;;-147.17;100.00;-15917.19;5004626;28;51365;-45
2023/01/27 03:50:43;;;;;;;;;1.75;1.00;;;;;-147.17;100.00;-15917.19;5004923;28;50952;-45
2023/01/27 03:53:09;;;;;;;;;4.00;2.25;;;;;-147.17;100.00;-15917.19;5002040;28;51121;-45
2023/01/27 03:55:36;;;;;;;;;2.75;2.75;;;;;-147.17;100.00;-15917.19;5000484;28;51120;-46
2023/01/27 03:58:17;;;;;;;;;4.00;4.00;;;;;-147.17;100.00;-15917.19;4993720;28;51411;-45
2023/01/27 04:00:44;;;;;;;;;1.00;1.00;;;;;-147.17;100.00;-15917.19;4982762;28;51998;-45
2023/01/27 04:08:37;;;;;;;;;4.50;3.00;;;;;-147.17;100.00;-15917.19;5000219;28;51025;-46
2023/01/27 04:13:49;;;;;;;;;1.25;1.25;;;;;-147.17;100.00;-15917.19;5004136;28;51092;-45
2023/01/27 04:16:16;;;;;;;;;1.50;1.00;;;;;-147.17;100.00;-15917.19;4984147;28;51261;-45
2023/01/27 04:18:42;;;;;;;;;2.00;2.00;;;;;-147.17;100.00;-15917.19;4998656;28;51131;-46
2023/01/27 04:21:07;;;;;;;;;3.00;2.75;;;;;-147.17;100.00;-15917.19;4998855;28;52085;-46
2023/01/27 04:23:32;;;;;;;;;3.00;1.00;;;;;-147.17;100.00;-15917.19;4997746;28;51009;-46
2023/01/27 04:25:59;;;;;;;;;2.75;2.00;;;;;-147.17;100.00;-15917.19;5000670;28;51172;-46
2023/01/27 04:28:24;;;;;;;;;2.25;2.00;;;;;-147.17;100.00;-15917.19;4993128;28;51165;-46
2023/01/27 04:30:50;;;;;;;;;3.00;2.50;;;;;-147.17;100.00;-15917.19;5000287;28;51939;-46
2023/01/27 04:33:15;;;;;;;;;2.00;2.00;;;;;-147.17;100.00;-15917.19;5000339;28;51110;-46
2023/01/27 04:35:44;;;;;;;;;4.00;3.00;;;;;-147.17;100.00;-15917.19;5004852;28;51172;-45
2023/01/27 04:38:10;;;;;;;;;0.00;0.00;;;;;-147.17;100.00;-15917.19;5002532;28;50891;-46
2023/01/27 04:40:36;;;;;;;;;5.00;2.75;;;;;-147.17;100.00;-15917.19;4997957;28;52531;-46
2023/01/27 04:43:01;;;;;;;;;1.75;1.75;;;;;-147.17;100.00;-15917.19;4994784;28;51162;-46
2023/01/27 04:45:27;;;;;;;;;2.00;2.00;;;;;-147.17;100.00;-15917.19;5005744;28;50915;-47
2023/01/27 04:47:52;;;;;;;;;2.00;1.00;;;;;-147.17;100.00;-15917.19;5012541;28;51022;-46
2023/01/27 04:50:17;;;;;;;;;3.00;1.00;;;;;-147.17;100.00;-15917.19;5013060;28;51140;-46
2023/01/27 04:52:44;;;;;;;;;4.50;3.50;;;;;-147.17;100.00;-15917.19;4998600;28;51106;-46
2023/01/27 04:55:10;;;;;;;;;5.00;3.00;;;;;-147.17;100.00;-15917.19;5003008;28;51199;-46
2023/01/27 04:57:35;;;;;;;;;2.50;2.00;;;;;-147.17;100.00;-15917.19;5009709;28;51098;-45
2023/01/27 05:00:00;;;;;;;;;2.50;2.00;;;;;-147.17;100.00;-15917.19;5012248;28;51883;-46
2023/01/27 05:02:26;;;;;;;;;2.25;2.25;;;;;-147.17;100.00;-15917.19;4998468;28;51202;-46
2023/01/27 05:04:51;;;;;;;;;6.25;1.75;;;;;-147.17;100.00;-15917.19;5002073;28;51384;-46
2023/01/27 05:07:17;;;;;;;;;2.50;2.00;;;;;-147.17;100.00;-15917.19;5009414;28;50978;-46
2023/01/27 05:09:42;;;;;;;;;2.00;2.00;;;;;-147.17;100.00;-15917.19;5012786;28;50994;-46
2023/01/27 05:12:07;;;;;;;;;1.75;1.25;;;;;-147.17;100.00;-15917.19;4997157;28;51168;-46
2023/01/27 05:14:33;;;;;;;;;4.00;1.50;;;;;-147.17;100.00;-15917.19;4996533;28;51062;-46
2023/01/27 05:16:58;;;;;;;;;2.00;2.00;;;;;-147.17;100.00;-15917.19;5000158;28;51106;-45
2023/01/27 05:19:23;;;;;;;;;3.50;2.50;;;;;-147.17;100.00;-15917.19;4995754;28;51284;-46
2023/01/27 05:21:48;;;;;;;;;1.50;1.50;;;;;-147.17;100.00;-15917.19;4995084;28;51074;-46
2023/01/27 05:24:14;;;;;;;;;6.00;2.75;;;;;-147.17;100.00;-15917.19;4993636;28;50869;-46
2023/01/27 05:26:39;;;;;;;;;3.00;2.00;;;;;-147.17;100.00;-15917.19;4993450;28;51090;-46
2023/01/27 05:29:05;;;;;;;;;3.00;2.00;;;;;-147.17;100.00;-15917.19;4993160;28;51716;-46
2023/01/27 05:31:30;;;;;;;;;2.00;2.00;;;;;-147.17;100.00;-15917.19;5003223;28;51082;-46
2023/01/27 05:33:58;;;;;;;;;2.25;2.00;;;;;-147.17;100.00;-15917.19;4992372;28;51005;-45
2023/01/27 05:36:24;;;;;;;;;3.00;2.50;;;;;-147.17;100.00;-15917.19;5011979;28;50939;-46
2023/01/27 05:38:50;;;;;;;;;3.00;2.00;;;;;-147.17;100.00;-15917.19;5012358;28;51000;-46
2023/01/27 05:41:17;;;;;;;;;1.75;1.75;;;;;-147.17;100.00;-15917.19;5007916;28;51117;-46
2023/01/27 05:43:45;;;;;;;;;4.50;2.00;;;;;-147.17;100.00;-15917.19;5001813;28;51241;-46
2023/01/27 05:46:19;;;;;;;;;2.00;2.00;;;;;-147.17;100.00;-15917.19;5000836;28;51022;-46
2023/01/27 05:48:47;;;;;;;;;2.00;2.00;;;;;-147.17;100.00;-15917.19;5007298;28;50915;-47
2023/01/27 05:51:13;;;;;;;;;3.00;1.50;;;;;-147.17;100.00;-15917.19;5007412;28;51095;-46
2023/01/27 05:53:39;;;;;;;;;6.00;5.00;;;;;-147.17;100.00;-15917.19;5001279;28;51264;-46
2023/01/27 05:56:05;;;;;;;;;3.00;2.00;;;;;-147.17;100.00;-15917.19;5010765;28;51236;-45
2023/01/27 05:58:31;;;;;;;;;3.00;3.00;;;;;-147.17;100.00;-15917.19;5011673;28;51248;-47
2023/01/27 06:01:06;;;;;;;;;3.00;3.00;;;;;-147.17;100.00;-15917.19;5006041;28;51150;-45
2023/01/27 06:03:31;;;;;;;;;3.00;2.25;;;;;-147.17;100.00;-15917.19;4989312;28;51106;-46
2023/01/27 06:05:57;;;;;;;;;1.00;1.00;;;;;-147.17;100.00;-15917.19;5012309;28;50927;-46
2023/01/27 06:08:25;;;;;;;;;3.00;2.00;;;;;-147.17;100.00;-15917.19;5012228;28;51034;-46
2023/01/27 06:10:51;;;;;;;;;2.00;2.00;;;;;-147.17;100.00;-15917.19;5006946;28;50898;-46
2023/01/27 06:13:17;;;;;;;;;3.00;2.00;;;;;-147.17;100.00;-15917.19;4998225;28;52815;-49
2023/01/27 06:15:44;;;;;;;;;3.00;1.00;;;;;-147.17;100.00;-15917.19;5005259;28;51317;-46
2023/01/27 06:18:11;;;;;;;;;4.00;3.00;;;;;-147.17;100.00;-15917.19;4998390;28;53058;-46
2023/01/27 06:20:37;;;;;;;;;1.00;1.00;;;;;-147.17;100.00;-15917.19;5011944;28;51160;-46
2023/01/27 06:23:03;;;;;;;;;1.00;1.00;;;;;-147.17;100.00;-15917.19;4997919;28;51216;-46
2023/01/27 06:25:29;;;;;;;;;1.25;1.00;;;;;-147.17;100.00;-15917.19;5012054;28;51071;-46
2023/01/27 06:27:56;;;;;;;;;2.25;2.00;;;;;-147.17;100.00;-15917.19;5010372;28;52509;-46
2023/01/27 06:30:22;;;;;;;;;3.00;2.25;;;;;-147.17;100.00;-15917.19;4999908;28;51096;-46
2023/01/27 06:32:47;;;;;;;;;3.00;2.00;;;;;-147.17;100.00;-15917.19;4992002;28;51236;-46
2023/01/27 06:35:12;;;;;;;;;2.00;2.00;;;;;-147.17;100.00;-15917.19;4994630;28;51007;-45
2023/01/27 06:37:38;;;;;;;;;2.00;2.00;;;;;-147.17;100.00;-15917.19;4972111;28;51211;-46
2023/01/27 06:40:04;;;;;;;;;3.00;3.00;;;;;-147.17;100.00;-15917.19;5004811;28;51175;-47
2023/01/27 06:42:29;;;;;;;;;2.00;2.00;;;;;-147.17;100.00;-15917.19;4979661;28;51378;-46
2023/01/27 06:44:55;;;;;;;;;2.75;2.50;;;;;-147.17;100.00;-15917.19;5007045;28;51180;-47
2023/01/27 06:47:20;;;;;;;;;5.00;3.00;;;;;-147.17;100.00;-15917.19;5009494;28;51809;-45
2023/01/27 06:49:46;;;;;;;;;5.00;4.00;;;;;-147.17;100.00;-15917.19;5009590;28;51048;-45
2023/01/27 06:52:11;;;;;;;;;2.75;2.25;;;;;-147.17;100.00;-15917.19;5000460;28;51204;-45
2023/01/27 06:54:36;;;;;;;;;3.00;3.00;;;;;-147.17;100.00;-15917.19;5005500;28;51488;-46
2023/01/27 06:57:02;;;;;;;;;4.50;3.00;;;;;-147.17;100.00;-15917.19;4992389;28;52142;-47
2023/01/27 06:59:27;;;;;;;;;6.00;5.75;;;;;-147.17;100.00;-15917.19;5009583;28;51351;-44
2023/01/27 07:01:52;;;;;;;;;6.25;3.50;;;;;-147.17;100.00;-15917.19;4998032;28;51718;-45
2023/01/27 07:04:18;;;;;;;;;6.00;5.00;;;;;-147.17;100.00;-15917.19;4989738;28;51173;-46
2023/01/27 07:06:43;;;;;;;;;3.00;2.00;;;;;-147.17;100.00;-15917.19;4967103;28;51288;-46
2023/01/27 07:09:08;;;;;;;;;5.00;3.00;;;;;-147.17;100.00;-15917.19;4986340;28;52317;-46
2023/01/27 07:11:34;;;;;;;;;3.00;2.25;;;;;-147.17;100.00;-15917.19;5000785;28;51277;-46
2023/01/27 07:14:06;;;;;;;;;5.00;4.00;;;;;-147.17;100.00;-15917.19;4992362;28;51067;-49
2023/01/27 07:16:31;;;;;;;;;4.50;4.50;;;;;-147.17;100.00;-15917.19;4998016;28;51364;-47
2023/01/27 07:18:56;;;;;;;;;3.00;3.00;;;;;-147.17;100.00;-15917.19;5008895;28;51015;-47
2023/01/27 07:21:24;;;;;;;;;5.00;3.50;;;;;-147.17;100.00;-15917.19;5014593;28;50931;-48
2023/01/27 07:23:49;;;;;;;;;6.00;4.50;;;;;-147.17;100.00;-15917.19;5000291;28;51088;-46
2023/01/27 07:26:14;;;;;;;;;2.75;2.50;;;;;-147.17;100.00;-15917.19;5013782;28;50983;-47
2023/01/27 07:28:40;;;;;;;;;6.00;5.00;;;;;-147.17;100.00;-15917.19;5273689;22;51116;-45
2023/01/27 07:31:05;;;;;;;;;6.00;6.00;;;;;-147.17;100.00;-15917.19;4993914;28;51043;-46
2023/01/27 07:33:31;;;;;;;;;3.50;3.00;;;;;-147.17;100.00;-15917.19;4993847;28;51191;-45
2023/01/27 07:35:56;;;;;;;;;6.00;5.25;;;;;-147.17;100.00;-15917.19;4994187;28;51879;-45
2023/01/27 07:38:21;;;;;;;;;6.75;6.25;;;;;-147.17;100.00;-15917.19;4994728;28;50927;-48
2023/01/27 07:40:47;;;;;;;;;7.50;5.75;;;;;-147.17;100.00;-15917.19;4993526;28;51093;-46
2023/01/27 07:43:12;;;;;;;;;5.00;3.00;;;;;-147.17;100.00;-15917.19;4987910;28;51203;-44
2023/01/27 07:45:38;;;;;;;;;3.00;3.00;;;;;-147.17;100.00;-15917.19;4988050;28;51753;-48
2023/01/27 07:48:05;;;;;;;;;3.00;3.00;;;;;-147.17;100.00;-15917.19;4994809;28;51023;-47
2023/01/27 07:50:31;;;;;;;;;6.00;5.00;;;;;-147.17;100.00;-15917.19;4994434;28;51098;-45
2023/01/27 07:52:59;;;;;;;;;5.00;5.00;;;;;-147.17;100.00;-15917.19;4989022;28;51142;-44
2023/01/27 07:55:25;;;;;;;;;6.00;6.00;;;;;-147.17;100.00;-15917.19;4985147;28;55194;-47
2023/01/27 07:57:52;;;;;;;;;6.00;5.75;;;;;-147.17;100.00;-15917.19;4987472;28;51078;-46
2023/01/27 08:00:20;;;;;;;;;6.00;4.75;;;;;-147.17;100.00;-15917.19;4994167;28;50983;-46
2023/01/27 08:02:51;;;;;;;;;5.00;5.00;;;;;-147.17;100.00;-15917.19;4957826;28;51462;-46
2023/01/27 08:05:17;;;;;;;;;6.00;5.00;;;;;-147.17;100.00;-15917.19;4978089;28;53226;-45
2023/01/27 08:07:42;;;;;;;;;5.00;3.00;;;;;-147.17;100.00;-15917.19;4988327;28;54943;-47
2023/01/27 08:10:09;;;;;;;;;5.00;5.00;;;;;-147.17;100.00;-15917.19;4993207;28;50964;-46
2023/01/27 08:12:34;;;;;;;;;6.00;6.00;;;;;-147.17;100.00;-15917.19;4977007;28;51368;-46
2023/01/27 08:14:59;;;;;;;;;5.50;5.50;;;;;-147.17;100.00;-15917.19;4991265;28;51060;-46
2023/01/27 08:17:25;;;;;;;;;10.25;6.75;;;;;-147.17;100.00;-15917.19;4991959;28;51386;-46
2023/01/27 08:19:50;;;;;;;;;7.25;7.00;;;;;-147.17;100.00;-15917.19;4986136;28;51060;-46
2023/01/27 08:22:20;;;;;;;;;5.50;5.50;;;;;-147.17;100.00;-15917.19;4982462;28;51165;-46
2023/01/27 08:24:45;;;;;;;;;4.00;2.00;;;;;-147.17;100.00;-15917.19;4988027;28;52135;-46
2023/01/27 08:27:11;;;;;;;;;7.00;6.50;;;;;-147.17;100.00;-15917.19;4988318;28;51213;-46
2023/01/27 08:29:36;;;;;;;;;7.75;6.50;;;;;-147.17;100.00;-15917.19;4968832;28;51467;-46
2023/01/27 08:32:01;;;;;;;;;7.00;6.00;;;;;-147.17;100.00;-15917.19;4995325;28;51397;-46
2023/01/27 08:34:27;;;;;;;;;7.00;6.00;;;;;-147.17;100.00;-15917.19;4986658;28;51854;-45
2023/01/27 08:36:52;;;;;;;;;4.50;4.50;;;;;-147.17;100.00;-15917.19;4975187;28;51160;-47
2023/01/27 08:39:18;;;;;;;;;2.75;2.00;;;;;-147.17;100.00;-15917.19;4992283;28;51001;-47
2023/01/27 08:41:43;;;;;;;;;7.75;7.25;;;;;-147.17;100.00;-15917.19;4989659;28;51151;-47
2023/01/27 08:44:08;;;;;;;;;7.50;6.25;;;;;-147.17;100.00;-15917.19;4990231;28;51199;-46
2023/01/27 08:46:34;;;;;;;;;7.00;6.00;;;;;-147.17;100.00;-15917.19;4989903;28;51408;-45
2023/01/27 08:48:59;;;;;;;;;3.00;3.00;;;;;-147.17;100.00;-15917.19;4992274;28;51188;-47
2023/01/27 08:51:25;;;;;;;;;11.00;11.00;;;;;-147.17;100.00;-15917.19;4988434;28;51308;-45
2023/01/27 08:53:50;;;;;;;;;5.00;5.00;;;;;-147.17;100.00;-15917.19;4988102;28;52080;-46
2023/01/27 08:56:18;;;;;;;;;10.50;10.25;;;;;-147.17;100.00;-15917.19;4983341;28;51089;-48
2023/01/27 08:58:46;;;;;;;;;8.00;8.00;;;;;-147.17;100.00;-15917.19;4986875;28;51391;-47
2023/01/27 09:01:17;;;;;;;;;11.00;10.25;;;;;-147.17;100.00;-15917.19;4993594;28;51049;-46
2023/01/27 09:03:45;;;;;;;;;4.00;3.50;;;;;-147.17;100.00;-15917.19;4992942;28;51959;-47
2023/01/27 09:06:12;;;;;;;;;10.50;9.50;;;;;-147.17;100.00;-15917.19;4992217;28;51099;-47
2023/01/27 09:08:39;;;;;;;;;12.00;10.25;;;;;-147.17;100.00;-15917.19;4985810;28;51174;-47
2023/01/27 09:11:17;;;;;;;;;9.50;9.50;;;;;-147.17;100.00;-15917.19;4992167;28;51074;-46
2023/01/27 09:13:42;;;;;;;;;7.25;7.25;;;;;-147.17;100.00;-15917.19;4989873;28;51320;-47
2023/01/27 09:16:08;;;;;;;;;8.00;8.00;;;;;-147.17;100.00;-15917.19;4972864;28;51134;-46
2023/01/27 09:18:33;;;;;;;;;8.00;8.00;;;;;-147.17;100.00;-15917.19;4985918;28;50959;-46
2023/01/27 09:21:05;;;;;;;;;10.25;8.25;;;;;-147.17;100.00;-15917.19;4993002;28;51403;-46
2023/01/27 09:23:32;;;;;;;;;6.75;6.25;;;;;-147.17;100.00;-15917.19;4990934;28;52039;-45
2023/01/27 09:25:57;;;;;;;;;7.00;7.00;;;;;-147.17;100.00;-15917.19;4975046;28;51126;-47
2023/01/27 09:28:23;;;;;;;;;11.50;10.00;;;;;-147.17;100.00;-15917.19;4988645;28;51098;-45
2023/01/27 09:30:49;;;;;;;;;12.00;10.00;;;;;-147.17;100.00;-15917.19;4992713;28;51436;-48
2023/01/27 09:33:14;;;;;;;;;10.25;8.50;;;;;-147.17;100.00;-15917.19;4991997;28;52183;-46
2023/01/27 09:35:51;;;;;;;;;9.50;8.25;;;;;-147.17;100.00;-15917.19;4992305;28;51137;-45
2023/01/27 09:38:21;;;;;;;;;9.25;6.75;;;;;-147.17;100.00;-15917.19;4990967;28;51071;-47
2023/01/27 09:41:14;;;;;;;;;10.00;10.00;;;;;-147.17;100.00;-15917.19;4989215;28;51672;-48
2023/01/27 09:43:53;;;;;;;;;11.50;10.00;;;;;-147.17;100.00;-15917.19;4990483;28;52219;-46
2023/01/27 09:46:36;;;;;;;;;6.75;5.75;;;;;-147.17;100.00;-15917.19;4991716;28;51107;-47
2023/01/27 09:49:13;;;;;;;;;5.00;3.00;;;;;-147.17;100.00;-15917.19;4983626;28;51165;-47
2023/01/27 09:52:08;;;;;;;;;6.75;6.25;;;;;-147.17;100.00;-15917.19;4991603;28;51409;-46
2023/01/27 09:54:43;;;;;;;;;5.75;5.50;;;;;-147.17;100.00;-15917.19;4984030;28;50990;-47
2023/01/27 09:57:17;;;;;;;;;7.00;5.00;;;;;-147.17;100.00;-15917.19;4987854;28;51051;-48
2023/01/27 10:00:32;;;;;;;;;4.00;4.00;;;;;-147.17;100.00;-15917.19;4990794;28;51180;-47
2023/01/27 10:03:11;;;;;;;;;6.00;5.50;;;;;-147.17;100.00;-15917.19;4901152;28;51551;-47
2023/01/27 10:05:54;;;;;;;;;7.00;7.00;;;;;-147.17;100.00;-15917.19;4976360;28;51930;-45
2023/01/27 10:08:29;;;;;;;;;10.00;8.25;;;;;-147.17;100.00;-15917.19;4991720;28;51080;-48
2023/01/27 10:11:30;;;;;;;;;11.50;10.00;;;;;-147.17;100.00;-15917.19;4997305;28;51176;-47
2023/01/27 10:14:17;;;;;;;;;7.00;6.75;;;;;-147.17;100.00;-15917.19;4983320;28;51127;-47
2023/01/27 10:16:46;;;;;;;;;8.25;6.50;;;;;-147.17;100.00;-15917.19;4974005;28;51202;-49
2023/01/27 10:19:14;;;;;;;;;6.50;6.50;;;;;-147.17;100.00;-15917.19;4990143;28;51097;-47
2023/01/27 10:22:09;;;;;;;;;8.50;8.00;;;;;-147.17;100.00;-15917.19;4990143;28;50931;-47
2023/01/27 10:24:56;;;;;;;;;11.00;8.25;;;;;-147.17;100.00;-15917.19;4989736;28;51155;-46
2023/01/27 10:27:23;;;;;;;;;8.50;7.25;;;;;-147.17;100.00;-15917.19;4987889;28;52323;-45
2023/01/27 10:30:02;;;;;;;;;6.50;6.50;;;;;-147.17;100.00;-15917.19;4990584;28;51159;-45
2023/01/27 10:32:46;;;;;;;;;10.50;7.50;;;;;-147.17;100.00;-15917.19;4989805;28;51164;-45
2023/01/27 10:35:17;;;;;;;;;9.75;8.25;;;;;-147.17;100.00;-15917.19;4986482;28;51162;-47
2023/01/27 10:38:10;;;;;;;;;7.25;7.25;;;;;-147.17;100.00;-15917.19;4986494;28;52878;-48
2023/01/27 10:40:52;;;;;;;;;10.00;10.00;;;;;-147.17;100.00;-15917.19;4992118;28;51205;-46
2023/01/27 10:43:55;;;;;;;;;10.25;9.25;;;;;-147.17;100.00;-15917.19;4979348;28;50940;-48
2023/01/27 10:46:46;;;;;;;;;8.00;7.00;;;;;-147.17;100.00;-15917.19;4991387;28;52007;-47
2023/01/27 10:49:11;;;;;;;;;10.25;8.00;;;;;-147.17;100.00;-15917.19;4994716;28;52152;-46
2023/01/27 10:51:48;;;;;;;;;9.00;7.25;;;;;-147.17;100.00;-15917.19;4994316;28;50941;-46
2023/01/27 10:54:34;;;;;;;;;6.00;6.00;;;;;-147.17;100.00;-15917.19;4994415;28;51128;-47
2023/01/27 10:57:16;;;;;;;;;8.50;7.25;;;;;-147.17;100.00;-15917.19;4994541;28;51008;-46
2023/01/27 10:59:54;;;;;;;;;8.50;8.00;;;;;-147.17;100.00;-15917.19;4993018;28;51275;-46
2023/01/27 11:02:28;;;;;;;;;11.50;8.00;;;;;-147.17;100.00;-15917.19;4993392;28;51178;-46
2023/01/27 11:05:07;;;;;;;;;11.50;10.00;;;;;-147.17;100.00;-15917.19;4994746;28;51172;-46
2023/01/27 11:07:51;;;;;;;;;11.25;10.00;;;;;-147.17;100.00;-15917.19;4994445;28;51002;-46
2023/01/27 11:10:19;;;;;;;;;7.75;7.00;;;;;-147.17;100.00;-15917.19;4995491;28;52629;-47
2023/01/27 11:12:51;;;;;;;;;8.00;7.50;;;;;-147.17;100.00;-15917.19;4982083;28;51323;-47
2023/01/27 11:15:32;;;;;;;;;7.50;7.25;;;;;-147.17;100.00;-15917.19;4993791;28;51170;-46
2023/01/27 11:18:10;;;;;;;;;10.00;9.25;;;;;-147.17;100.00;-15917.19;4993742;28;50976;-59
2023/01/27 11:20:42;;;;;;;;;12.75;11.25;;;;;-147.17;100.00;-15917.19;4993529;28;52111;-59
2023/01/27 11:23:16;;;;;;;;;12.50;11.50;;;;;-147.17;100.00;-15917.19;4976342;28;51033;-58
2023/01/27 11:25:52;;;;;;;;;10.00;8.00;;;;;-147.17;100.00;-15917.19;4994219;28;51161;-59
2023/01/27 11:28:30;;;;;;;;;7.25;7.25;;;;;-147.17;100.00;-15917.19;4971506;28;51369;-57
2023/01/27 11:31:15;;;;;;;;;11.00;10.50;;;;;-147.17;100.00;-15917.19;4991072;28;54272;-62
2023/01/27 11:34:20;;;;;;;;;11.00;10.00;;;;;-147.17;100.00;-15917.19;4976478;28;50988;-59
2023/01/27 11:36:46;;;;;;;;;11.50;10.00;;;;;-147.17;100.00;-15917.19;4989256;28;51201;-59
2023/01/27 11:39:14;;;;;;;;;6.25;6.25;;;;;-147.17;100.00;-15917.19;4989452;28;51114;-58
2023/01/27 11:41:46;;;;;;;;;13.00;11.00;;;;;-147.17;100.00;-15917.19;4993221;28;52147;-59